Time;durP1;ratioP1;P1;durP2;ratioP2;P2;SDS_P1;SDS_P2;PMS_P1;PMS_P2;Temp;Humidity;BMP_temperature;BMP_pressure;BME280_temperature;BME280_humidity;BME280_pressure;Samples;Min_cycle;Max_cycle;Signal;HPM_P1;HPM_P2
2022/09/14 00:04:23;;;;;;;3.72;2.00;;;21.20;62.10;;;;;;20842585;28;20508;-58
2022/09/14 00:14:25;;;;;;;3.20;1.40;;;21.20;62.70;;;;;;20842306;28;20099;-56
2022/09/14 00:24:33;;;;;;;5.13;2.10;;;21.10;65.10;;;;;;20842381;28;20404;-59
2022/09/14 00:34:35;;;;;;;4.35;1.35;;;21.00;65.00;;;;;;20840278;28;20057;-59
2022/09/14 00:44:36;;;;;;;2.75;1.10;;;20.90;63.00;;;;;;20840422;28;20046;-60
2022/09/14 00:54:45;;;;;;;2.28;1.10;;;20.90;62.10;;;;;;20839041;28;20045;-56
2022/09/14 01:04:47;;;;;;;3.33;1.00;;;20.90;61.90;;;;;;20838304;28;20052;-60
2022/09/14 01:15:13;;;;;;;2.60;1.20;;;20.90;62.20;;;;;;20837562;28;20421;-58
2022/09/14 01:25:51;;;;;;;2.85;1.55;;;20.80;62.70;;;;;;20836578;28;20048;-59
2022/09/14 01:35:57;;;;;;;3.08;1.10;;;20.90;62.60;;;;;;20835401;28;20081;-58
2022/09/14 01:46:10;;;;;;;2.72;1.50;;;20.90;62.70;;;;;;20835124;28;20046;-59
2022/09/14 01:56:24;;;;;;;2.87;1.30;;;20.90;62.90;;;;;;20834510;28;20068;-58
2022/09/14 02:06:35;;;;;;;3.43;1.23;;;20.90;62.40;;;;;;20832339;28;20050;-56
2022/09/14 02:16:42;;;;;;;4.57;2.33;;;21.00;62.20;;;;;;20831909;28;20115;-56
2022/09/14 02:26:47;;;;;;;3.55;1.92;;;20.80;64.20;;;;;;20831291;28;20144;-56
2022/09/14 02:37:11;;;;;;;5.40;1.90;;;20.70;64.20;;;;;;20814490;28;20075;-55
2022/09/14 02:47:30;;;;;;;6.77;2.57;;;20.50;65.00;;;;;;20830945;28;20049;-59
2022/09/14 02:57:52;;;;;;;3.95;2.13;;;20.60;64.40;;;;;;20830646;28;20056;-58
2022/09/14 03:07:54;;;;;;;4.55;2.42;;;20.40;64.80;;;;;;20829839;28;20464;-58
2022/09/14 03:17:56;;;;;;;6.15;1.90;;;20.40;64.90;;;;;;20841085;28;20049;-56
2022/09/14 03:27:59;;;;;;;3.10;1.70;;;20.20;64.70;;;;;;20845823;28;20053;-56
2022/09/14 03:38:02;;;;;;;3.30;2.03;;;20.20;65.30;;;;;;20845588;28;20417;-55
2022/09/14 03:48:04;;;;;;;3.65;2.17;;;20.20;65.50;;;;;;20844728;28;20500;-59
2022/09/14 03:58:06;;;;;;;2.83;1.90;;;20.10;65.60;;;;;;20843923;28;20057;-60
2022/09/14 04:08:08;;;;;;;4.38;2.03;;;20.10;65.60;;;;;;20842018;28;20583;-58
2022/09/14 04:18:10;;;;;;;5.10;2.80;;;20.20;65.20;;;;;;20842679;28;20049;-57
2022/09/14 04:28:13;;;;;;;;;;;19.90;66.20;;;;;;20841505;28;20505;-57
2022/09/14 04:38:15;;;;;;;6.20;3.78;;;20.00;65.90;;;;;;20841463;28;19956;-58
2022/09/14 04:48:19;;;;;;;5.55;3.78;;;20.00;66.00;;;;;;20840442;28;20427;-59
2022/09/14 04:58:21;;;;;;;6.68;3.85;;;20.00;66.20;;;;;;20838697;28;20049;-58
2022/09/14 05:08:24;;;;;;;7.60;4.03;;;19.90;67.00;;;;;;20838349;28;20064;-58
2022/09/14 05:18:27;;;;;;;8.43;4.40;;;19.80;67.50;;;;;;20837177;28;20094;-58
2022/09/14 05:28:31;;;;;;;6.10;3.90;;;19.80;67.70;;;;;;20836475;28;20073;-57
2022/09/14 05:38:34;;;;;;;7.28;4.00;;;19.70;67.90;;;;;;20835493;28;20048;-59
2022/09/14 05:48:37;;;;;;;7.97;4.20;;;19.70;68.10;;;;;;20835212;28;20053;-57
2022/09/14 05:58:41;;;;;;;11.75;4.40;;;19.70;68.20;;;;;;20834472;28;20042;-57
2022/09/14 06:08:43;;;;;;;7.73;4.00;;;19.70;68.20;;;;;;20833372;28;20056;-58
2022/09/14 06:18:45;;;;;;;10.35;4.30;;;19.60;68.30;;;;;;20832657;28;20365;-58
2022/09/14 06:28:48;;;;;;;7.63;4.23;;;19.60;68.40;;;;;;20831909;28;20526;-58
2022/09/14 06:38:52;;;;;;;22.83;6.03;;;19.70;68.10;;;;;;20831708;28;20049;-59
2022/09/14 06:49:06;;;;;;;10.70;4.17;;;19.80;68.10;;;;;;20830237;28;20053;-58
2022/09/14 06:59:13;;;;;;;12.50;5.38;;;20.00;67.40;;;;;;20829954;28;20049;-59
2022/09/14 07:09:17;;;;;;;9.85;4.60;;;20.10;67.10;;;;;;20829089;28;20053;-59
2022/09/14 07:19:19;;;;;;;10.15;4.80;;;20.20;66.60;;;;;;20829759;28;20050;-61
2022/09/14 07:29:21;;;;;;;10.93;4.28;;;20.40;66.10;;;;;;20828801;28;20470;-59
2022/09/14 07:39:22;;;;;;;18.67;5.15;;;20.60;65.60;;;;;;20828059;28;20049;-58
2022/09/14 07:49:24;;;;;;;15.60;6.07;;;20.60;65.50;;;;;;20828525;28;20056;-60
2022/09/14 07:59:26;;;;;;;13.25;5.47;;;20.70;65.10;;;;;;20830525;28;20050;-59
2022/09/14 08:09:28;;;;;;;13.50;6.10;;;20.80;64.80;;;;;;20842153;28;20166;-60
2022/09/14 08:19:30;;;;;;;13.52;5.30;;;21.10;64.10;;;;;;20842013;28;20046;-59
2022/09/14 08:29:32;;;;;;;9.60;4.25;;;21.40;63.00;;;;;;20840654;28;20057;-59
2022/09/14 08:39:34;;;;;;;13.05;5.07;;;21.70;61.30;;;;;;20838831;28;20046;-58
2022/09/14 08:49:51;;;;;;;7.60;2.53;;;23.20;56.90;;;;;;20838031;28;20064;-57
2022/09/14 08:59:55;;;;;;;8.80;3.10;;;24.10;54.50;;;;;;20839683;28;20049;-59
2022/09/14 09:09:57;;;;;;;4.97;2.50;;;24.60;52.80;;;;;;20818010;28;20490;-63
2022/09/14 09:20:17;;;;;;;8.27;3.70;;;24.90;51.70;;;;;;20832296;28;20064;-55
2022/09/14 09:30:19;;;;;;;6.75;1.80;;;24.60;51.30;;;;;;20798381;28;20046;-58
2022/09/14 09:40:49;;;;;;;7.37;2.00;;;24.50;50.50;;;;;;20787398;28;20121;-54
2022/09/14 09:50:59;;;;;;;6.25;1.80;;;;;;;;;;20823382;28;20050;-55
2022/09/14 10:01:06;;;;;;;8.45;2.00;;;24.20;48.30;;;;;;20821820;28;20072;-58
2022/09/14 10:11:36;;;;;;;4.82;1.60;;;24.10;48.40;;;;;;20763122;28;20103;-55
2022/09/14 10:22:04;;;;;;;7.38;1.90;;;24.80;48.20;;;;;;20778562;28;20054;-55
2022/09/14 10:32:18;;;;;;;4.78;1.58;;;25.00;47.20;;;;;;20789863;28;20058;-60
2022/09/14 10:42:37;;;;;;;4.88;1.80;;;24.90;42.70;;;;;;20791100;28;20064;-54
2022/09/14 10:52:55;;;;;;;3.45;1.67;;;24.80;43.40;;;;;;20792453;28;20478;-57
2022/09/14 11:03:06;;;;;;;4.63;2.05;;;24.90;42.70;;;;;;20746702;28;20494;-60
2022/09/14 11:13:35;;;;;;;4.07;1.55;;;25.00;44.20;;;;;;20746805;28;20483;-57
2022/09/14 11:23:46;;;;;;;4.03;1.50;;;25.30;43.70;;;;;;20745674;28;20054;-59
2022/09/14 11:34:02;;;;;;;8.68;3.38;;;25.20;42.50;;;;;;20747871;28;20076;-56
2022/09/14 11:44:09;;;;;;;12.18;2.45;;;25.40;41.70;;;;;;20758731;28;20050;-56
2022/09/14 11:54:19;;;;;;;4.93;1.88;;;25.30;43.30;;;;;;20771199;28;20061;-56
2022/09/14 12:04:21;;;;;;;6.93;2.65;;;25.60;41.10;;;;;;20840860;28;20065;-56
2022/09/14 12:14:29;;;;;;;6.00;2.33;;;25.80;42.40;;;;;;20821975;28;20103;-57
2022/09/14 12:24:30;;;;;;;5.15;1.70;;;26.00;42.10;;;;;;20839955;28;20045;-56
2022/09/14 12:34:33;;;;;;;3.77;1.67;;;26.10;41.00;;;;;;20838515;28;20488;-55
2022/09/14 12:44:53;;;;;;;7.00;2.65;;;26.10;42.10;;;;;;20838350;28;20775;-56
2022/09/14 12:55:29;;;;;;;2.67;1.15;;;25.90;41.30;;;;;;20838553;28;20136;-55
2022/09/14 13:05:33;;;;;;;4.22;1.20;;;26.00;40.60;;;;;;20838969;28;20056;-56
2022/09/14 13:15:48;;;;;;;4.50;1.63;;;26.30;40.20;;;;;;20837827;28;20133;-56
2022/09/14 13:25:50;;;;;;;3.45;1.42;;;26.10;40.60;;;;;;20836466;28;20049;-56
2022/09/14 13:36:00;;;;;;;4.80;1.30;;;26.20;40.70;;;;;;20835441;28;20057;-57
2022/09/14 13:46:08;;;;;;;2.92;1.30;;;25.90;41.10;;;;;;20835023;28;20514;-55
2022/09/14 13:56:32;;;;;;;3.58;1.10;;;26.20;41.10;;;;;;20814989;28;20057;-57
2022/09/14 14:06:36;;;;;;;5.63;1.40;;;26.50;39.70;;;;;;20833233;28;20068;-56
2022/09/14 14:16:38;;;;;;;6.07;1.70;;;26.40;40.00;;;;;;20833132;28;20064;-56
2022/09/14 14:26:57;;;;;;;4.38;1.73;;;26.20;40.20;;;;;;20831770;28;20049;-56
2022/09/14 14:37:01;;;;;;;3.83;1.42;;;26.30;39.90;;;;;;20830378;28;20081;-56
2022/09/14 14:47:05;;;;;;;4.45;1.52;;;26.30;40.20;;;;;;20830481;28;20456;-55
2022/09/14 14:57:07;;;;;;;2.60;1.13;;;26.00;40.40;;;;;;20830128;28;20417;-55
2022/09/14 15:07:09;;;;;;;5.47;1.70;;;26.30;40.90;;;;;;20830931;28;20050;-56
2022/09/14 15:17:12;;;;;;;4.93;1.70;;;26.10;41.40;;;;;;20846848;28;20060;-57
2022/09/14 15:27:14;;;;;;;3.75;1.35;;;26.10;41.40;;;;;;20846375;28;20088;-56
2022/09/14 15:37:16;;;;;;;5.85;2.08;;;26.00;41.60;;;;;;20845141;28;20053;-56
2022/09/14 15:47:17;;;;;;;5.63;1.73;;;25.90;42.60;;;;;;20845103;28;20409;-58
2022/09/14 15:57:19;;;;;;;3.30;1.48;;;26.10;41.70;;;;;;20835870;28;20053;-56
2022/09/14 16:07:22;;;;;;;3.42;1.88;;;25.70;43.30;;;;;;20840985;28;20119;-57
2022/09/14 16:17:24;;;;;;;4.32;1.60;;;26.10;41.90;;;;;;20840893;28;20059;-58
2022/09/14 16:27:26;;;;;;;2.53;1.00;;;25.90;42.30;;;;;;20837725;28;20554;-56
2022/09/14 16:37:27;;;;;;;4.72;1.58;;;26.10;45.00;;;;;;20838050;28;20057;-60
2022/09/14 16:47:29;;;;;;;9.05;3.25;;;26.10;43.40;;;;;;20838704;28;20495;-56
2022/09/14 16:57:31;;;;;;;4.00;1.80;;;26.00;42.70;;;;;;20836395;28;20433;-61
2022/09/14 17:07:32;;;;;;;6.13;1.85;;;26.00;43.90;;;;;;20837362;28;20045;-59
2022/09/14 17:17:34;;;;;;;6.97;2.23;;;26.30;43.10;;;;;;20835781;28;20049;-62
2022/09/14 17:27:37;;;;;;;5.93;1.95;;;26.20;43.30;;;;;;20833894;28;20144;-57
2022/09/14 17:37:39;;;;;;;4.05;2.17;;;26.00;43.40;;;;;;20833703;28;20091;-61
2022/09/14 17:47:40;;;;;;;7.30;2.07;;;25.40;46.20;;;;;;20828383;28;20057;-61
2022/09/14 17:57:42;;;;;;;7.17;2.07;;;25.20;45.90;;;;;;20792103;28;20360;-64
2022/09/14 18:07:44;;;;;;;;;;;25.50;45.40;;;;;;20831612;28;20546;-61
2022/09/14 18:17:46;;;;;;;6.00;2.40;;;25.60;45.30;;;;;;20812650;28;20401;-61
2022/09/14 18:27:48;;;;;;;7.70;2.53;;;25.60;45.00;;;;;;20831784;28;20049;-57
2022/09/14 18:37:49;;;;;;;6.43;2.17;;;25.20;45.50;;;;;;20831636;28;20145;-58
2022/09/14 18:47:50;;;;;;;6.43;2.17;;;24.70;46.10;;;;;;20830474;28;20114;-56
2022/09/14 18:57:52;;;;;;;7.30;2.30;;;24.40;46.90;;;;;;20831364;28;20130;-57
2022/09/14 19:07:53;;;;;;;7.87;2.93;;;24.20;47.60;;;;;;20830998;28;20429;-59
2022/09/14 19:17:55;;;;;;;4.53;2.23;;;24.20;47.40;;;;;;20828939;28;20147;-59
2022/09/14 19:27:57;;;;;;;5.78;3.08;;;24.00;47.70;;;;;;20828920;28;20049;-56
2022/09/14 19:37:59;;;;;;;8.87;3.17;;;24.00;48.00;;;;;;20828921;28;20129;-57
2022/09/14 19:48:01;;;;;;;7.57;2.60;;;23.70;48.50;;;;;;20827757;28;20557;-58
2022/09/14 19:58:02;;;;;;;5.27;2.33;;;23.70;48.50;;;;;;20835516;28;20064;-58
2022/09/14 20:08:04;;;;;;;7.60;2.57;;;23.70;48.50;;;;;;20841393;28;20394;-58
2022/09/14 20:18:05;;;;;;;8.40;2.63;;;23.70;48.80;;;;;;20840755;28;20061;-58
2022/09/14 20:28:07;;;;;;;9.83;2.77;;;23.70;49.10;;;;;;20822461;28;20057;-59
2022/09/14 20:38:08;;;;;;;3.92;2.10;;;23.70;49.40;;;;;;20840893;28;20092;-58
2022/09/14 20:48:10;;;;;;;5.07;2.70;;;23.60;50.10;;;;;;20839077;28;20478;-58
2022/09/14 20:58:11;;;;;;;5.53;3.03;;;23.30;51.10;;;;;;20838335;28;20187;-57
2022/09/14 21:08:13;;;;;;;6.27;3.27;;;23.30;51.40;;;;;;20837413;28;20099;-57
2022/09/14 21:18:15;;;;;;;4.55;2.30;;;23.20;51.80;;;;;;20837692;28;20096;-57
2022/09/14 21:28:16;;;;;;;6.67;2.77;;;23.20;51.80;;;;;;20836651;28;20528;-57
2022/09/14 21:38:17;;;;;;;6.55;2.83;;;23.10;52.40;;;;;;20835780;28;20099;-58
2022/09/14 21:48:19;;;;;;;5.23;2.40;;;23.10;52.90;;;;;;20835327;28;20052;-57
2022/09/14 21:58:21;;;;;;;5.37;2.30;;;22.90;53.50;;;;;;20834284;28;20052;-59
2022/09/14 22:08:23;;;;;;;6.25;2.30;;;23.00;53.50;;;;;;20833406;28;20060;-58
2022/09/14 22:18:24;;;;;;;11.68;6.22;;;23.00;53.60;;;;;;20832241;28;20076;-56
2022/09/14 22:28:26;;;;;;;6.27;2.93;;;22.90;54.00;;;;;;20831902;28;20140;-57
2022/09/14 22:38:29;;;;;;;5.88;2.75;;;22.80;54.60;;;;;;20831997;28;20099;-59
2022/09/14 22:48:33;;;;;;;6.47;2.50;;;22.80;54.60;;;;;;20831416;28;20049;-56
2022/09/14 22:58:35;;;;;;;5.38;2.42;;;22.80;54.70;;;;;;20831833;28;20077;-57
2022/09/14 23:08:36;;;;;;;4.95;3.22;;;22.80;54.80;;;;;;20830670;28;20128;-58
2022/09/14 23:18:39;;;;;;;7.67;3.83;;;22.60;55.20;;;;;;20830342;28;20079;-58
2022/09/14 23:28:40;;;;;;;6.47;3.23;;;22.70;55.20;;;;;;20830296;28;20448;-57
2022/09/14 23:38:42;;;;;;;4.15;2.40;;;22.70;55.40;;;;;;20846353;28;20447;-57
2022/09/14 23:48:44;;;;;;;8.13;3.45;;;22.70;55.60;;;;;;20845305;28;20088;-58
2022/09/14 23:58:45;;;;;;;9.63;2.40;;;22.70;55.90;;;;;;20844312;28;20056;-58
